createdAt,value
2019-04-10T00:01:24.422Z,99.90
2019-04-10T00:03:52.832Z,99.90
2019-04-10T00:06:21.700Z,99.90
2019-04-10T00:08:50.554Z,99.90
2019-04-10T00:11:19.244Z,99.90
2019-04-10T00:13:47.660Z,99.90
2019-04-10T00:16:16.074Z,99.90
2019-04-10T00:18:44.481Z,99.90
2019-04-10T00:21:14.142Z,99.90
2019-04-10T00:23:43.662Z,99.90
2019-04-10T00:26:12.956Z,99.90
2019-04-10T00:28:41.583Z,99.90
2019-04-10T00:31:09.998Z,99.90
2019-04-10T00:33:38.846Z,99.90
2019-04-10T00:36:07.906Z,99.90
2019-04-10T00:38:36.484Z,99.90
2019-04-10T00:41:06.017Z,99.90
2019-04-10T00:43:35.029Z,99.90
2019-04-10T00:46:04.075Z,99.90
2019-04-10T00:48:32.614Z,99.90
2019-04-10T00:51:01.231Z,99.90
2019-04-10T00:53:29.742Z,99.90
2019-04-10T00:55:58.145Z,99.90
2019-04-10T00:58:26.589Z,99.90
2019-04-10T01:00:55.099Z,99.90
2019-04-10T01:03:42.138Z,99.90
2019-04-10T01:06:11.483Z,99.90
2019-04-10T01:08:40.539Z,99.90
2019-04-10T01:11:09.129Z,99.90
2019-04-10T01:13:37.573Z,99.90
2019-04-10T01:16:07.130Z,99.90
2019-04-10T01:18:35.897Z,99.90
2019-04-10T01:21:04.292Z,99.90
2019-04-10T01:23:33.093Z,99.90
2019-04-10T01:26:01.601Z,99.90
2019-04-10T01:28:31.006Z,99.90
2019-04-10T01:30:59.502Z,99.90
2019-04-10T01:33:28.311Z,99.90
2019-04-10T01:35:56.785Z,99.90
2019-04-10T01:38:25.206Z,99.90
2019-04-10T01:40:53.621Z,99.90
2019-04-10T01:43:22.531Z,99.90
2019-04-10T01:45:51.538Z,99.90
2019-04-10T01:48:20.067Z,99.90
2019-04-10T01:50:48.784Z,99.90
2019-04-10T01:53:17.625Z,99.90
2019-04-10T01:55:47.082Z,99.90
2019-04-10T01:58:17.149Z,99.90
2019-04-10T02:00:48.218Z,99.90
2019-04-10T02:03:16.722Z,99.90
2019-04-10T02:05:45.142Z,99.90
2019-04-10T02:08:16.055Z,99.90
2019-04-10T02:10:44.624Z,99.90
2019-04-10T02:13:13.081Z,99.90
2019-04-10T02:15:41.912Z,99.90
2019-04-10T02:18:10.943Z,99.90
2019-04-10T02:20:39.711Z,99.90
2019-04-10T02:23:08.130Z,99.90
2019-04-10T02:25:36.959Z,99.90
2019-04-10T02:28:05.369Z,99.90
2019-04-10T02:30:34.714Z,99.90
2019-04-10T02:33:04.302Z,99.90
2019-04-10T02:35:34.062Z,99.90
2019-04-10T02:38:22.298Z,99.90
2019-04-10T02:40:33.314Z,99.90
2019-04-10T02:43:03.246Z,99.90
2019-04-10T02:45:32.593Z,99.90
2019-04-10T02:48:01.621Z,99.90
2019-04-10T02:50:31.307Z,99.90
2019-04-10T02:53:01.385Z,99.90
2019-04-10T02:55:31.390Z,99.90
2019-04-10T02:58:00.855Z,99.90
2019-04-10T03:00:30.337Z,99.90
2019-04-10T03:02:59.322Z,99.90
2019-04-10T03:05:27.951Z,99.90
2019-04-10T03:07:58.075Z,99.90
2019-04-10T03:10:36.905Z,99.90
2019-04-10T03:12:58.553Z,99.90
2019-04-10T03:15:27.304Z,99.90
2019-04-10T03:17:56.605Z,99.90
2019-04-10T03:20:25.109Z,99.90
2019-04-10T03:22:53.553Z,99.90
2019-04-10T03:25:21.949Z,99.90
2019-04-10T03:27:50.455Z,99.90
2019-04-10T03:30:20.607Z,99.90
2019-04-10T03:32:55.891Z,99.90
2019-04-10T03:35:30.905Z,99.90
2019-04-10T03:37:59.440Z,99.90
2019-04-10T03:40:27.863Z,99.90
2019-04-10T03:42:57.219Z,99.90
2019-04-10T03:45:25.748Z,99.90
2019-04-10T03:47:54.146Z,99.90
2019-04-10T03:50:23.602Z,99.90
2019-04-10T03:52:52.133Z,99.90
2019-04-10T03:55:20.958Z,99.90
2019-04-10T03:57:49.529Z,99.90
2019-04-10T04:00:19.382Z,99.90
2019-04-10T04:02:48.349Z,99.90
2019-04-10T04:05:16.780Z,99.90
2019-04-10T04:07:45.205Z,99.90
2019-04-10T04:10:13.993Z,99.90
2019-04-10T04:12:42.608Z,99.90
2019-04-10T04:15:11.450Z,99.90
2019-04-10T04:17:40.134Z,99.90
2019-04-10T04:20:08.837Z,99.90
2019-04-10T04:22:37.502Z,99.90
2019-04-10T04:25:06.734Z,99.90
2019-04-10T04:27:36.210Z,99.90
2019-04-10T04:30:08.460Z,99.90
2019-04-10T04:32:37.975Z,99.90
2019-04-10T04:35:06.645Z,99.90
2019-04-10T04:37:35.785Z,99.90
2019-04-10T04:40:05.971Z,99.90
2019-04-10T04:42:35.148Z,99.90
2019-04-10T04:45:05.195Z,99.90
2019-04-10T04:47:33.883Z,99.90
2019-04-10T04:50:03.445Z,99.90
2019-04-10T04:52:32.764Z,99.90
2019-04-10T04:55:01.990Z,99.90
2019-04-10T04:57:31.228Z,99.90
2019-04-10T05:00:01.113Z,99.90
2019-04-10T05:02:30.306Z,99.90
2019-04-10T05:04:58.853Z,99.90
2019-04-10T05:07:27.250Z,99.90
2019-04-10T05:09:55.887Z,99.90
2019-04-10T05:12:25.554Z,99.90
2019-04-10T05:14:54.106Z,99.90
2019-04-10T05:17:22.532Z,99.90
2019-04-10T05:19:50.930Z,99.90
2019-04-10T05:22:19.329Z,99.90
2019-04-10T05:24:48.851Z,99.90
2019-04-10T05:27:18.137Z,99.90
2019-04-10T05:29:47.161Z,99.90
2019-04-10T05:32:15.902Z,99.90
2019-04-10T05:34:44.761Z,99.90
2019-04-10T05:37:13.559Z,99.90
2019-04-10T05:39:48.758Z,99.90
2019-04-10T05:42:12.746Z,99.90
2019-04-10T05:44:42.308Z,99.90
2019-04-10T05:47:11.724Z,99.90
2019-04-10T05:49:41.373Z,99.90
2019-04-10T05:52:10.391Z,99.90
2019-04-10T05:54:39.585Z,99.90
2019-04-10T05:57:08.363Z,99.90
2019-04-10T05:59:36.944Z,99.90
2019-04-10T06:02:06.803Z,99.90
2019-04-10T06:04:35.786Z,99.90
2019-04-10T06:07:05.264Z,99.90
2019-04-10T06:09:33.798Z,99.90
2019-04-10T06:12:03.780Z,99.90
2019-04-10T06:14:32.470Z,99.90
2019-04-10T06:17:03.972Z,99.90
2019-04-10T06:19:32.259Z,99.90
2019-04-10T06:22:01.241Z,99.90
2019-04-10T06:24:29.973Z,99.90
2019-04-10T06:26:59.703Z,99.90
2019-04-10T06:29:28.783Z,99.90
2019-04-10T06:31:57.452Z,99.90
2019-04-10T06:34:26.085Z,99.90
2019-04-10T06:36:54.542Z,99.90
2019-04-10T06:39:22.972Z,99.90
2019-04-10T06:41:51.439Z,99.90
2019-04-10T06:44:19.837Z,99.90
2019-04-10T06:46:48.602Z,99.90
2019-04-10T06:49:17.124Z,99.90
2019-04-10T06:51:45.774Z,99.90
2019-04-10T06:54:14.451Z,99.90
2019-04-10T06:56:43.052Z,99.90
2019-04-10T06:59:12.184Z,99.90
2019-04-10T07:01:48.775Z,99.90
2019-04-10T07:04:11.534Z,99.90
2019-04-10T07:06:53.900Z,99.90
2019-04-10T07:09:12.384Z,99.90
2019-04-10T07:11:41.010Z,99.90
2019-04-10T07:14:16.237Z,99.90
2019-04-10T07:16:44.711Z,99.90
2019-04-10T07:19:13.240Z,99.90
2019-04-10T07:21:42.649Z,99.90
2019-04-10T07:24:14.687Z,99.90
2019-04-10T07:26:44.573Z,99.90
2019-04-10T07:29:16.403Z,99.90
2019-04-10T07:31:42.485Z,99.90
2019-04-10T07:34:11.117Z,99.90
2019-04-10T07:36:41.630Z,99.90
2019-04-10T07:39:10.044Z,99.90
2019-04-10T07:41:39.639Z,99.90
2019-04-10T07:44:08.477Z,99.90
2019-04-10T07:46:38.112Z,99.90
2019-04-10T07:49:06.760Z,99.90
2019-04-10T07:51:35.182Z,99.90
2019-04-10T07:54:04.102Z,99.90
2019-04-10T07:56:33.296Z,99.90
2019-04-10T07:59:02.678Z,99.90
2019-04-10T08:01:31.259Z,99.90
2019-04-10T08:03:59.722Z,99.90
2019-04-10T08:06:28.118Z,99.90
2019-04-10T08:08:56.540Z,94.10
2019-04-10T08:11:26.027Z,94.60
2019-04-10T08:13:56.044Z,94.50
2019-04-10T08:16:25.345Z,83.10
2019-04-10T08:18:54.168Z,90.60
2019-04-10T08:21:23.870Z,83.70
2019-04-10T08:23:53.051Z,74.60
2019-04-10T08:26:22.710Z,80.90
2019-04-10T08:28:51.686Z,68.90
2019-04-10T08:31:21.228Z,76.60
2019-04-10T08:33:50.509Z,75.60
2019-04-10T08:36:19.313Z,70.20
2019-04-10T08:38:48.950Z,70.60
2019-04-10T08:41:17.798Z,71.30
2019-04-10T08:43:46.221Z,65.60
2019-04-10T08:46:14.623Z,64.90
2019-04-10T08:48:43.421Z,62.70
2019-04-10T08:51:11.944Z,63.10
2019-04-10T08:53:40.586Z,61.20
2019-04-10T08:56:09.242Z,57.50
2019-04-10T08:58:37.727Z,57.60
2019-04-10T09:01:07.180Z,57.50
2019-04-10T09:03:35.765Z,55.10
2019-04-10T09:06:04.171Z,54.50
2019-04-10T09:08:32.912Z,53.50
2019-04-10T09:11:01.479Z,51.60
2019-04-10T09:13:30.665Z,50.50
2019-04-10T09:16:00.350Z,50.60
2019-04-10T09:18:29.513Z,51.50
2019-04-10T09:20:57.957Z,51.10
2019-04-10T09:23:36.208Z,50.40
2019-04-10T09:25:57.627Z,52.00
2019-04-10T09:28:26.521Z,51.60
2019-04-10T09:30:55.346Z,50.00
2019-04-10T09:33:27.579Z,49.70
2019-04-10T09:35:55.112Z,48.20
2019-04-10T09:38:23.649Z,49.30
2019-04-10T09:40:53.208Z,49.90
2019-04-10T09:43:21.769Z,46.70
2019-04-10T09:45:51.398Z,46.10
2019-04-10T09:48:19.876Z,45.00
2019-04-10T09:50:48.297Z,45.40
2019-04-10T09:53:17.095Z,48.00
2019-04-10T09:55:46.827Z,48.10
2019-04-10T09:58:15.573Z,49.00
2019-04-10T10:00:43.981Z,48.90
2019-04-10T10:03:12.388Z,48.50
2019-04-10T10:05:40.891Z,48.20
2019-04-10T10:08:10.539Z,48.10
2019-04-10T10:10:39.860Z,50.00
2019-04-10T10:13:09.544Z,47.60
2019-04-10T10:15:38.364Z,49.30
2019-04-10T10:18:06.909Z,49.70
2019-04-10T10:20:35.591Z,49.00
2019-04-10T10:23:05.322Z,47.30
2019-04-10T10:25:33.908Z,49.00
2019-04-10T10:28:02.850Z,49.40
2019-04-10T10:30:31.540Z,47.40
2019-04-10T10:33:01.406Z,48.10
2019-04-10T10:35:29.926Z,50.60
2019-04-10T10:37:58.923Z,47.00
2019-04-10T10:40:27.742Z,45.50
2019-04-10T10:42:56.269Z,46.10
2019-04-10T10:45:25.005Z,47.20
2019-04-10T10:47:54.677Z,44.30
2019-04-10T10:50:23.679Z,46.10
2019-04-10T10:52:52.267Z,44.80
2019-04-10T10:55:21.300Z,46.40
2019-04-10T10:57:49.919Z,45.10
2019-04-10T11:00:20.083Z,45.50
2019-04-10T11:02:49.769Z,45.60
2019-04-10T11:05:19.093Z,46.60
2019-04-10T11:07:48.914Z,47.30
2019-04-10T11:10:22.887Z,46.10
2019-04-10T11:12:55.205Z,46.00
2019-04-10T11:15:20.196Z,45.40
2019-04-10T11:17:49.872Z,46.00
2019-04-10T11:20:19.881Z,46.70
2019-04-10T11:22:49.586Z,46.10
2019-04-10T11:25:26.322Z,46.40
2019-04-10T11:27:56.463Z,47.20
2019-04-10T11:30:26.838Z,44.90
2019-04-10T11:32:58.387Z,46.90
2019-04-10T11:35:26.880Z,45.60
2019-04-10T11:37:59.101Z,47.10
2019-04-10T11:40:26.820Z,46.30
2019-04-10T11:42:59.931Z,46.00
2019-04-10T11:45:29.793Z,45.10
2019-04-10T11:47:58.956Z,47.80
2019-04-10T11:50:29.785Z,43.30
2019-04-10T11:53:00.372Z,44.50
2019-04-10T11:55:29.743Z,44.70
2019-04-10T11:57:59.935Z,43.10
2019-04-10T12:03:12.696Z,42.50
2019-04-10T12:05:42.300Z,42.20
2019-04-10T12:08:44.825Z,42.70
2019-04-10T12:13:12.786Z,44.60
2019-04-10T12:15:43.042Z,44.50
2019-04-10T12:18:11.754Z,43.40
2019-04-10T12:20:43.256Z,42.00
2019-04-10T12:23:14.060Z,43.50
2019-04-10T12:25:43.781Z,41.90
2019-04-10T12:28:12.242Z,42.90
2019-04-10T12:30:41.665Z,41.10
2019-04-10T12:33:10.210Z,42.60
2019-04-10T12:35:38.959Z,44.80
2019-04-10T12:38:11.631Z,43.20
2019-04-10T12:40:40.418Z,44.30
2019-04-10T12:43:10.419Z,44.30
2019-04-10T12:45:40.200Z,45.00
2019-04-10T12:48:08.874Z,43.80
2019-04-10T12:50:37.586Z,45.50
2019-04-10T12:53:07.117Z,44.70
2019-04-10T12:55:36.702Z,43.70
2019-04-10T12:58:10.811Z,45.20
2019-04-10T13:00:36.047Z,43.00
2019-04-10T13:03:05.210Z,44.90
2019-04-10T13:05:34.658Z,46.40
2019-04-10T13:08:16.046Z,45.10
2019-04-10T13:10:35.699Z,46.20
2019-04-10T13:13:11.487Z,45.20
2019-04-10T13:15:40.259Z,42.40
2019-04-10T13:18:08.967Z,42.40
2019-04-10T13:20:37.849Z,42.20
2019-04-10T13:23:06.639Z,41.70
2019-04-10T13:25:36.347Z,43.30
2019-04-10T13:28:05.514Z,37.20
2019-04-10T13:30:44.687Z,40.70
2019-04-10T13:33:05.336Z,39.20
2019-04-10T13:35:34.404Z,41.00
2019-04-10T13:38:03.385Z,40.70
2019-04-10T13:40:32.058Z,43.60
2019-04-10T13:43:01.331Z,41.60
2019-04-10T13:45:31.106Z,40.10
2019-04-10T13:47:59.995Z,39.60
2019-04-10T13:50:28.993Z,39.60
2019-04-10T13:52:57.650Z,41.00
2019-04-10T13:55:26.389Z,44.50
2019-04-10T13:57:55.082Z,41.40
2019-04-10T14:00:28.078Z,43.00
2019-04-10T14:02:56.654Z,43.70
2019-04-10T14:05:31.929Z,41.90
2019-04-10T14:08:02.135Z,43.70
2019-04-10T14:10:31.333Z,42.90
2019-04-10T14:12:59.964Z,43.80
2019-04-10T14:15:31.653Z,45.80
2019-04-10T14:18:00.363Z,45.40
2019-04-10T14:20:31.255Z,43.80
2019-04-10T14:23:06.337Z,44.40
2019-04-10T14:25:52.829Z,47.00
2019-04-10T14:28:22.881Z,47.80
2019-04-10T14:30:51.909Z,45.70
2019-04-10T14:33:21.309Z,45.80
2019-04-10T14:35:49.984Z,45.60
2019-04-10T14:38:18.966Z,46.20
2019-04-10T14:40:47.965Z,44.70
2019-04-10T14:43:16.753Z,44.90
2019-04-10T14:45:45.841Z,45.90
2019-04-10T14:48:14.484Z,46.30
2019-04-10T14:50:44.117Z,45.90
2019-04-10T14:53:13.800Z,46.90
2019-04-10T14:55:42.518Z,48.50
2019-04-10T14:58:21.989Z,48.40
2019-04-10T15:00:46.726Z,48.80
2019-04-10T15:03:16.133Z,48.20
2019-04-10T15:05:50.003Z,47.80
2019-04-10T15:08:15.525Z,48.30
2019-04-10T15:10:44.350Z,48.30
2019-04-10T15:13:17.463Z,48.70
2019-04-10T15:15:43.105Z,48.60
2019-04-10T15:18:11.554Z,49.80
2019-04-10T15:20:40.115Z,48.20
2019-04-10T15:23:09.741Z,47.50
2019-04-10T15:25:39.438Z,48.80
2019-04-10T15:28:08.480Z,49.10
2019-04-10T15:30:37.120Z,46.50
2019-04-10T15:33:06.587Z,47.30
2019-04-10T15:35:35.292Z,47.20
2019-04-10T15:38:06.607Z,47.10
2019-04-10T15:40:35.198Z,48.60
2019-04-10T15:43:04.870Z,47.00
2019-04-10T15:45:33.544Z,49.10
2019-04-10T15:48:03.114Z,48.80
2019-04-10T15:50:32.580Z,49.50
2019-04-10T15:53:02.272Z,49.80
2019-04-10T15:55:32.040Z,49.40
2019-04-10T15:58:02.374Z,49.20
2019-04-10T16:00:31.498Z,47.70
2019-04-10T16:03:00.773Z,47.10
2019-04-10T16:05:31.382Z,46.50
2019-04-10T16:08:00.815Z,46.90
2019-04-10T16:10:34.282Z,47.50
2019-04-10T16:13:10.671Z,47.80
2019-04-10T16:15:43.142Z,48.00
2019-04-10T16:18:13.714Z,47.70
2019-04-10T16:20:43.188Z,47.00
2019-04-10T16:23:27.547Z,48.00
2019-04-10T16:25:56.155Z,48.30
2019-04-10T16:28:25.014Z,49.00
2019-04-10T16:30:53.652Z,50.20
2019-04-10T16:33:23.179Z,49.10
2019-04-10T16:35:52.630Z,49.40
2019-04-10T16:38:21.278Z,48.10
2019-04-10T16:40:52.504Z,50.10
2019-04-10T16:43:22.306Z,50.40
2019-04-10T16:45:51.035Z,51.80
2019-04-10T16:48:20.930Z,51.50
2019-04-10T16:50:49.833Z,51.50
2019-04-10T16:53:18.821Z,51.20
2019-04-10T16:55:49.631Z,50.30
2019-04-10T16:58:18.174Z,50.50
2019-04-10T17:00:47.471Z,52.30
2019-04-10T17:03:22.033Z,52.00
2019-04-10T17:05:50.576Z,51.30
2019-04-10T17:08:19.595Z,52.10
2019-04-10T17:10:48.385Z,50.80
2019-04-10T17:13:18.021Z,51.90
2019-04-10T17:15:48.726Z,52.70
2019-04-10T17:18:17.344Z,52.40
2019-04-10T17:20:47.312Z,53.40
2019-04-10T17:23:16.419Z,53.30
2019-04-10T17:25:46.558Z,53.30
2019-04-10T17:28:16.446Z,53.60
2019-04-10T17:30:46.963Z,53.40
2019-04-10T17:33:16.599Z,54.10
2019-04-10T17:35:45.621Z,54.70
2019-04-10T17:38:14.278Z,55.80
2019-04-10T17:40:49.937Z,57.30
2019-04-10T17:43:13.641Z,56.80
2019-04-10T17:45:42.819Z,60.80
2019-04-10T17:48:11.778Z,58.90
2019-04-10T17:50:41.372Z,60.00
2019-04-10T17:53:11.461Z,67.20
2019-04-10T17:55:40.180Z,79.90
2019-04-10T17:58:13.794Z,94.10
2019-04-10T18:00:45.191Z,86.50
2019-04-10T18:03:17.596Z,91.10
2019-04-10T18:05:44.684Z,93.90
2019-04-10T18:08:13.658Z,83.60
2019-04-10T18:10:48.745Z,95.70
2019-04-10T18:13:13.419Z,96.90
2019-04-10T18:15:41.978Z,98.80
2019-04-10T18:18:11.392Z,99.90
2019-04-10T18:20:40.190Z,97.80
2019-04-10T18:23:09.329Z,99.90
2019-04-10T18:25:38.198Z,97.70
2019-04-10T18:28:07.516Z,99.60
2019-04-10T18:30:37.152Z,99.90
2019-04-10T18:33:06.761Z,99.90
2019-04-10T18:35:35.302Z,99.70
2019-04-10T18:38:03.860Z,99.90
2019-04-10T18:40:34.970Z,98.40
2019-04-10T18:43:11.863Z,99.90
2019-04-10T18:45:53.934Z,99.90
2019-04-10T18:48:13.032Z,99.90
2019-04-10T18:50:43.647Z,99.90
2019-04-10T18:53:13.101Z,99.90
2019-04-10T18:55:42.749Z,99.90
2019-04-10T18:58:19.274Z,99.90
2019-04-10T19:00:52.756Z,99.90
2019-04-10T19:03:48.665Z,99.90
2019-04-10T19:06:20.528Z,99.90
2019-04-10T19:09:00.603Z,99.90
2019-04-10T19:11:23.103Z,99.90
2019-04-10T19:13:50.969Z,99.90
2019-04-10T19:16:21.486Z,99.90
2019-04-10T19:18:52.256Z,99.90
2019-04-10T19:21:21.851Z,99.90
2019-04-10T19:23:50.652Z,99.90
2019-04-10T19:26:23.182Z,99.90
2019-04-10T19:28:53.339Z,99.90
2019-04-10T19:31:26.411Z,99.90
2019-04-10T19:33:55.531Z,99.90
2019-04-10T19:36:24.050Z,99.90
2019-04-10T19:38:53.899Z,99.90
2019-04-10T19:44:10.717Z,99.90
2019-04-10T19:46:42.407Z,99.90
2019-04-10T19:49:12.133Z,99.90
2019-04-10T19:51:41.264Z,99.90
2019-04-10T19:54:10.936Z,99.90
2019-04-10T19:56:44.581Z,99.90
2019-04-10T19:59:14.534Z,99.90
2019-04-10T20:01:44.534Z,99.90
2019-04-10T20:04:15.088Z,99.90
2019-04-10T20:06:48.880Z,99.90
2019-04-10T20:09:20.655Z,99.90
2019-04-10T20:11:53.094Z,99.90
2019-04-10T20:14:22.100Z,99.90
2019-04-10T20:16:52.346Z,99.90
2019-04-10T20:19:20.941Z,99.90
2019-04-10T20:21:50.349Z,99.90
2019-04-10T20:24:19.137Z,99.90
2019-04-10T20:26:48.140Z,99.90
2019-04-10T20:29:17.174Z,99.90
2019-04-10T20:31:46.186Z,99.90
2019-04-10T20:34:15.761Z,99.90
2019-04-10T20:36:47.032Z,99.90
2019-04-10T20:39:16.984Z,99.90
2019-04-10T20:41:51.958Z,99.90
2019-04-10T20:44:16.596Z,99.90
2019-04-10T20:46:46.582Z,99.90
2019-04-10T20:49:16.239Z,99.90
2019-04-10T20:51:45.997Z,99.90
2019-04-10T20:54:20.435Z,99.90
2019-04-10T20:56:56.980Z,99.90
2019-04-10T20:59:28.631Z,99.90
2019-04-10T21:01:59.921Z,99.90
2019-04-10T21:04:32.249Z,99.90
2019-04-10T21:07:00.760Z,99.90
2019-04-10T21:09:31.968Z,99.90
2019-04-10T21:12:06.805Z,99.90
2019-04-10T21:14:32.307Z,99.90
2019-04-10T21:17:04.666Z,99.90
2019-04-10T21:19:35.509Z,99.90
2019-04-10T21:22:04.181Z,99.90
2019-04-10T21:24:35.842Z,99.90
2019-04-10T21:27:05.778Z,99.90
2019-04-10T21:29:44.911Z,99.90
2019-04-10T21:32:34.467Z,99.90
2019-04-10T21:35:07.998Z,99.90
2019-04-10T21:37:36.521Z,99.90
2019-04-10T21:40:06.511Z,99.90
2019-04-10T21:42:45.443Z,99.90
2019-04-10T21:45:18.612Z,99.90
2019-04-10T21:47:56.000Z,99.90
2019-04-10T21:50:26.776Z,99.90
2019-04-10T21:52:55.569Z,99.90
2019-04-10T21:55:31.231Z,99.90
2019-04-10T21:58:03.762Z,99.90
2019-04-10T22:00:51.101Z,99.90
2019-04-10T22:03:21.040Z,99.90
2019-04-10T22:05:55.296Z,99.90
2019-04-10T22:08:37.163Z,99.90
2019-04-10T22:11:06.403Z,99.90
2019-04-10T22:13:35.794Z,99.90
2019-04-10T22:16:09.383Z,99.90
2019-04-10T22:18:39.333Z,99.90
2019-04-10T22:21:08.491Z,99.90
2019-04-10T22:23:38.446Z,99.90
2019-04-10T22:26:09.840Z,99.90
2019-04-10T22:28:39.294Z,99.90
2019-04-10T22:31:07.789Z,99.90
2019-04-10T22:33:48.920Z,99.90
2019-04-10T22:36:17.625Z,99.90
2019-04-10T22:38:46.179Z,99.90
2019-04-10T22:41:25.346Z,99.90
2019-04-10T22:43:49.248Z,99.90
2019-04-10T22:46:17.793Z,99.90
2019-04-10T22:48:46.264Z,99.90
2019-04-10T22:51:17.149Z,99.90
2019-04-10T22:53:45.853Z,99.90
2019-04-10T22:56:15.008Z,99.90
2019-04-10T22:58:44.179Z,99.90
2019-04-10T23:01:13.261Z,99.90
2019-04-10T23:03:43.078Z,99.90
2019-04-10T23:06:13.500Z,99.90
2019-04-10T23:08:45.793Z,99.90
2019-04-10T23:11:15.951Z,99.90
2019-04-10T23:13:44.354Z,99.90
2019-04-10T23:16:17.089Z,99.90
2019-04-10T23:18:45.957Z,99.90
2019-04-10T23:21:18.670Z,99.90
2019-04-10T23:23:50.035Z,99.90
2019-04-10T23:26:18.866Z,99.90
2019-04-10T23:28:50.399Z,99.90
2019-04-10T23:31:22.029Z,99.90
2019-04-10T23:33:54.425Z,99.90
2019-04-10T23:36:23.207Z,99.90
2019-04-10T23:38:55.531Z,99.90
2019-04-10T23:41:25.329Z,99.90
2019-04-10T23:43:56.000Z,99.90
2019-04-10T23:46:24.465Z,99.90
2019-04-10T23:48:53.017Z,99.90
2019-04-10T23:51:21.501Z,99.90
2019-04-10T23:53:50.913Z,99.90
2019-04-10T23:56:21.835Z,99.90
2019-04-10T23:58:54.035Z,99.90
